createdAt,value
2019-04-20T00:01:25.733Z,16.20
2019-04-20T00:03:49.085Z,16.20
2019-04-20T00:06:19.803Z,16.20
2019-04-20T00:08:57.872Z,16.20
2019-04-20T00:11:27.551Z,16.10
2019-04-20T00:14:00.095Z,16.10
2019-04-20T00:16:23.154Z,16.10
2019-04-20T00:18:56.700Z,16.00
2019-04-20T00:21:46.413Z,16.00
2019-04-20T00:24:21.035Z,15.90
2019-04-20T00:27:22.076Z,15.90
2019-04-20T00:29:35.586Z,15.80
2019-04-20T00:32:01.621Z,15.70
2019-04-20T00:34:26.463Z,15.70
2019-04-20T00:36:51.931Z,15.60
2019-04-20T00:39:21.855Z,15.60
2019-04-20T00:41:56.201Z,15.50
2019-04-20T00:44:29.712Z,15.50
2019-04-20T00:47:08.500Z,15.40
2019-04-20T00:49:38.830Z,15.40
2019-04-20T00:52:24.236Z,15.30
2019-04-20T00:54:28.678Z,15.20
2019-04-20T00:57:11.741Z,15.20
2019-04-20T00:59:51.383Z,15.10
2019-04-20T01:02:18.124Z,15.10
2019-04-20T01:04:56.795Z,15.00
2019-04-20T01:07:20.286Z,15.00
2019-04-20T01:09:58.386Z,14.90
2019-04-20T01:12:30.294Z,14.90
2019-04-20T01:15:04.299Z,14.80
2019-04-20T01:17:34.076Z,14.80
2019-04-20T01:20:05.222Z,14.80
2019-04-20T01:22:40.174Z,14.70
2019-04-20T01:25:14.132Z,14.70
2019-04-20T01:27:50.148Z,14.70
2019-04-20T01:30:20.105Z,14.60
2019-04-20T01:32:55.406Z,14.60
2019-04-20T01:35:31.984Z,14.60
2019-04-20T01:38:00.216Z,14.50
2019-04-20T01:40:14.878Z,14.50
2019-04-20T01:42:44.657Z,14.50
2019-04-20T01:45:21.441Z,14.50
2019-04-20T01:47:50.503Z,14.50
2019-04-20T01:50:23.061Z,14.40
2019-04-20T01:52:58.022Z,14.40
2019-04-20T01:55:38.914Z,14.30
2019-04-20T01:58:33.737Z,14.30
2019-04-20T02:01:11.958Z,14.20
2019-04-20T02:03:48.150Z,14.20
2019-04-20T02:06:18.869Z,14.10
2019-04-20T02:08:52.829Z,14.10
2019-04-20T02:11:25.264Z,14.00
2019-04-20T02:13:55.971Z,13.90
2019-04-20T02:16:28.618Z,13.90
2019-04-20T02:19:10.893Z,13.90
2019-04-20T02:21:38.711Z,13.80
2019-04-20T02:24:00.868Z,13.80
2019-04-20T02:26:26.091Z,13.70
2019-04-20T02:29:18.962Z,13.70
2019-04-20T02:32:15.456Z,13.60
2019-04-20T02:34:55.423Z,13.60
2019-04-20T02:38:01.289Z,13.50
2019-04-20T02:40:15.728Z,13.50
2019-04-20T02:42:51.036Z,13.50
2019-04-20T02:45:28.904Z,13.40
2019-04-20T02:47:56.673Z,13.40
2019-04-20T02:50:20.686Z,13.40
2019-04-20T02:52:55.939Z,13.30
2019-04-20T02:55:22.570Z,13.30
2019-04-20T02:58:07.064Z,13.30
2019-04-20T03:00:28.802Z,13.30
2019-04-20T03:02:42.913Z,13.20
2019-04-20T03:05:13.684Z,13.20
2019-04-20T03:07:55.733Z,13.20
2019-04-20T03:10:25.063Z,13.20
2019-04-20T03:12:56.672Z,13.20
2019-04-20T03:15:29.529Z,13.10
2019-04-20T03:17:58.222Z,13.10
2019-04-20T03:20:30.231Z,13.10
2019-04-20T03:23:18.671Z,13.00
2019-04-20T03:26:05.509Z,12.90
2019-04-20T03:28:51.748Z,12.90
2019-04-20T03:31:45.237Z,12.80
2019-04-20T03:34:41.744Z,12.70
2019-04-20T03:36:39.793Z,12.60
2019-04-20T03:38:58.389Z,12.60
2019-04-20T03:41:19.543Z,12.50
2019-04-20T03:43:41.715Z,12.50
2019-04-20T03:46:14.323Z,12.40
2019-04-20T03:48:59.755Z,12.40
2019-04-20T03:51:37.677Z,12.40
2019-04-20T03:54:18.495Z,12.30
2019-04-20T03:56:54.126Z,12.30
2019-04-20T04:00:01.853Z,12.30
2019-04-20T04:03:00.411Z,12.30
2019-04-20T04:05:17.612Z,12.30
2019-04-20T04:07:41.556Z,12.30
2019-04-20T04:10:23.536Z,12.20
2019-04-20T04:13:11.747Z,12.20
2019-04-20T04:15:48.221Z,12.10
2019-04-20T04:18:23.048Z,12.00
2019-04-20T04:20:52.138Z,12.00
2019-04-20T04:23:33.958Z,11.90
2019-04-20T04:26:07.022Z,11.90
2019-04-20T04:28:37.324Z,11.90
2019-04-20T04:31:29.344Z,11.90
2019-04-20T04:36:10.617Z,11.80
2019-04-20T04:41:19.872Z,11.70
2019-04-20T04:43:44.433Z,11.80
2019-04-20T04:45:57.542Z,11.80
2019-04-20T04:48:33.568Z,11.80
2019-04-20T04:51:03.152Z,11.80
2019-04-20T04:53:42.914Z,11.80
2019-04-20T04:56:08.769Z,11.90
2019-04-20T04:58:34.026Z,11.90
2019-04-20T05:01:10.670Z,12.00
2019-04-20T05:03:54.047Z,12.00
2019-04-20T05:06:35.417Z,12.00
2019-04-20T05:08:53.388Z,12.00
2019-04-20T05:11:19.598Z,12.10
2019-04-20T05:13:56.702Z,12.10
2019-04-20T05:16:43.197Z,12.10
2019-04-20T05:19:13.392Z,12.20
2019-04-20T05:22:02.119Z,12.20
2019-04-20T05:24:22.619Z,12.30
2019-04-20T05:27:09.434Z,12.30
2019-04-20T05:29:23.634Z,12.40
2019-04-20T05:31:53.469Z,12.40
2019-04-20T05:34:38.466Z,12.50
2019-04-20T05:37:17.621Z,12.50
2019-04-20T05:39:48.051Z,12.50
2019-04-20T05:42:20.383Z,12.60
2019-04-20T05:44:45.770Z,12.60
2019-04-20T05:47:18.401Z,12.60
2019-04-20T05:49:45.286Z,12.70
2019-04-20T05:52:30.776Z,12.70
2019-04-20T05:54:50.922Z,12.80
2019-04-20T05:57:27.822Z,12.80
2019-04-20T06:00:03.509Z,12.90
2019-04-20T06:02:27.684Z,13.00
2019-04-20T06:07:31.382Z,13.40
2019-04-20T06:09:59.803Z,13.90
2019-04-20T06:12:32.000Z,14.80
2019-04-20T06:15:21.105Z,15.90
2019-04-20T06:18:05.154Z,17.20
2019-04-20T06:20:42.599Z,18.80
2019-04-20T06:23:38.658Z,20.30
2019-04-20T06:26:20.681Z,21.70
2019-04-20T06:28:32.236Z,23.10
2019-04-20T06:31:10.748Z,24.30
2019-04-20T06:36:46.734Z,26.50
2019-04-20T06:39:34.289Z,27.70
2019-04-20T06:44:26.718Z,29.60
2019-04-20T06:47:00.108Z,30.40
2019-04-20T06:52:10.121Z,31.90
2019-04-20T06:57:35.687Z,33.10
2019-04-20T07:00:30.796Z,33.80
2019-04-20T07:02:44.187Z,34.30
2019-04-20T07:05:22.526Z,34.90
2019-04-20T07:07:48.037Z,35.30
2019-04-20T07:10:19.498Z,35.70
2019-04-20T07:12:46.720Z,36.10
2019-04-20T07:15:16.239Z,36.50
2019-04-20T07:18:03.006Z,36.90
2019-04-20T07:20:46.139Z,37.20
2019-04-20T07:23:18.130Z,37.60
2019-04-20T07:25:45.854Z,38.00
2019-04-20T07:28:12.610Z,38.30
2019-04-20T07:30:43.625Z,38.40
2019-04-20T07:33:15.893Z,38.70
2019-04-20T07:35:40.172Z,38.90
2019-04-20T07:40:44.130Z,39.20
2019-04-20T07:43:15.000Z,39.50
2019-04-20T07:45:51.753Z,39.80
2019-04-20T07:48:22.294Z,40.10
2019-04-20T07:50:47.018Z,40.30
2019-04-20T07:53:22.917Z,40.50
2019-04-20T07:55:58.134Z,40.60
2019-04-20T07:58:18.229Z,40.80
2019-04-20T08:01:10.323Z,40.90
2019-04-20T08:03:52.831Z,41.10
2019-04-20T08:06:18.372Z,41.40
2019-04-20T08:08:57.463Z,41.60
2019-04-20T08:11:36.607Z,41.90
2019-04-20T08:14:12.939Z,42.10
2019-04-20T08:16:50.547Z,42.30
2019-04-20T08:19:05.223Z,42.50
2019-04-20T08:21:40.554Z,42.70
2019-04-20T08:24:12.967Z,43.00
2019-04-20T08:26:30.945Z,43.30
2019-04-20T08:29:05.138Z,43.50
2019-04-20T08:31:55.870Z,43.70
2019-04-20T08:34:38.336Z,43.80
2019-04-20T08:37:00.940Z,43.80
2019-04-20T08:39:46.710Z,43.80
2019-04-20T08:42:08.812Z,43.90
2019-04-20T08:47:21.475Z,43.90
2019-04-20T08:49:41.351Z,44.00
2019-04-20T08:52:44.693Z,44.00
2019-04-20T08:54:42.755Z,44.20
2019-04-20T08:57:04.594Z,44.30
2019-04-20T08:59:35.090Z,44.60
2019-04-20T09:02:09.940Z,44.70
2019-04-20T09:04:45.011Z,44.90
2019-04-20T09:07:17.469Z,45.10
2019-04-20T09:10:04.925Z,45.10
2019-04-20T09:12:24.328Z,45.30
2019-04-20T09:14:42.976Z,45.30
2019-04-20T09:17:32.448Z,45.30
2019-04-20T09:20:06.327Z,45.30
2019-04-20T09:22:44.515Z,45.30
2019-04-20T09:25:43.134Z,45.30
2019-04-20T09:27:46.780Z,45.30
2019-04-20T09:30:24.305Z,45.40
2019-04-20T09:33:04.613Z,45.30
2019-04-20T09:35:37.336Z,45.10
2019-04-20T09:38:12.262Z,45.10
2019-04-20T09:40:46.119Z,45.20
2019-04-20T09:43:10.876Z,45.30
2019-04-20T09:45:47.967Z,45.30
2019-04-20T09:48:25.275Z,45.30
2019-04-20T09:51:11.670Z,45.20
2019-04-20T09:53:34.977Z,45.00
2019-04-20T09:56:06.324Z,44.60
2019-04-20T09:58:38.136Z,44.00
2019-04-20T10:01:10.886Z,43.40
2019-04-20T10:03:28.954Z,42.80
2019-04-20T10:05:59.281Z,42.40
2019-04-20T10:08:29.367Z,42.20
2019-04-20T10:10:59.506Z,42.20
2019-04-20T10:13:32.286Z,42.10
2019-04-20T10:16:01.864Z,41.90
2019-04-20T10:18:35.133Z,41.50
2019-04-20T10:21:02.961Z,41.10
2019-04-20T10:23:34.547Z,40.70
2019-04-20T10:26:04.695Z,40.40
2019-04-20T10:28:34.278Z,40.30
2019-04-20T10:31:04.351Z,40.50
2019-04-20T10:33:33.965Z,40.70
2019-04-20T10:36:04.150Z,40.90
2019-04-20T10:38:35.964Z,41.00
2019-04-20T10:41:13.007Z,41.10
2019-04-20T10:43:37.099Z,41.10
2019-04-20T10:46:08.951Z,41.10
2019-04-20T10:48:45.684Z,41.00
2019-04-20T10:51:10.695Z,41.10
2019-04-20T10:53:40.414Z,41.00
2019-04-20T10:56:09.913Z,40.90
2019-04-20T10:58:40.028Z,40.90
2019-04-20T11:01:09.821Z,40.80
2019-04-20T11:03:40.624Z,40.80
2019-04-20T11:06:11.008Z,40.70
2019-04-20T11:08:42.429Z,40.50
2019-04-20T11:11:19.183Z,40.40
2019-04-20T11:13:45.612Z,40.10
2019-04-20T11:16:16.289Z,40.00
2019-04-20T11:18:47.194Z,39.80
2019-04-20T11:21:17.791Z,39.70
2019-04-20T11:23:47.409Z,39.60
2019-04-20T11:26:18.136Z,39.50
2019-04-20T11:28:48.334Z,39.40
2019-04-20T11:31:19.927Z,39.40
2019-04-20T11:33:50.522Z,39.20
2019-04-20T11:36:21.239Z,39.10
2019-04-20T11:38:51.215Z,38.90
2019-04-20T11:41:25.537Z,38.60
2019-04-20T11:43:53.516Z,38.40
2019-04-20T11:46:24.836Z,38.20
2019-04-20T11:48:55.291Z,38.10
2019-04-20T11:51:25.513Z,38.00
2019-04-20T11:53:56.323Z,37.90
2019-04-20T11:56:33.487Z,37.80
2019-04-20T11:58:58.889Z,37.60
2019-04-20T12:01:55.000Z,37.40
2019-04-20T12:04:35.632Z,37.20
2019-04-20T12:06:57.080Z,37.00
2019-04-20T12:09:27.078Z,36.80
2019-04-20T12:12:09.300Z,36.60
2019-04-20T12:14:28.494Z,36.40
2019-04-20T12:16:58.078Z,36.30
2019-04-20T12:19:29.015Z,36.20
2019-04-20T12:21:59.954Z,35.90
2019-04-20T12:24:31.167Z,35.60
2019-04-20T12:27:01.173Z,35.30
2019-04-20T12:29:31.964Z,35.10
2019-04-20T12:32:04.152Z,34.90
2019-04-20T12:34:35.457Z,34.60
2019-04-20T12:37:05.418Z,34.50
2019-04-20T12:39:35.369Z,34.20
2019-04-20T12:42:08.109Z,34.00
2019-04-20T12:44:37.419Z,33.80
2019-04-20T12:47:07.759Z,33.60
2019-04-20T12:49:37.852Z,33.40
2019-04-20T12:52:08.453Z,33.30
2019-04-20T12:54:41.180Z,33.30
2019-04-20T12:57:10.784Z,33.20
2019-04-20T12:59:42.732Z,33.10
2019-04-20T13:02:11.767Z,33.00
2019-04-20T13:04:41.624Z,32.90
2019-04-20T13:07:12.112Z,32.80
2019-04-20T13:09:50.539Z,32.60
2019-04-20T13:12:40.671Z,32.40
2019-04-20T13:15:30.361Z,32.30
2019-04-20T13:18:01.239Z,32.20
2019-04-20T13:20:32.147Z,32.10
2019-04-20T13:23:03.632Z,32.10
2019-04-20T13:25:33.199Z,31.90
2019-04-20T13:28:03.189Z,31.80
2019-04-20T13:30:32.962Z,31.80
2019-04-20T13:33:03.590Z,31.60
2019-04-20T13:35:34.274Z,31.40
2019-04-20T13:38:04.566Z,31.10
2019-04-20T13:40:35.651Z,30.80
2019-04-20T13:43:05.835Z,30.70
2019-04-20T13:45:35.535Z,30.50
2019-04-20T13:48:05.030Z,30.40
2019-04-20T13:50:35.925Z,30.20
2019-04-20T13:53:05.554Z,30.00
2019-04-20T13:55:36.287Z,29.90
2019-04-20T13:58:25.666Z,29.70
2019-04-20T14:01:20.996Z,29.60
2019-04-20T14:04:08.512Z,29.50
2019-04-20T14:06:39.483Z,29.40
2019-04-20T14:09:09.764Z,29.30
2019-04-20T14:11:41.271Z,29.20
2019-04-20T14:14:11.173Z,29.20
2019-04-20T14:16:41.241Z,29.10
2019-04-20T14:19:11.262Z,29.00
2019-04-20T14:21:41.766Z,28.90
2019-04-20T14:24:12.982Z,28.80
2019-04-20T14:26:44.541Z,28.70
2019-04-20T14:29:14.753Z,28.60
2019-04-20T14:31:45.865Z,28.50
2019-04-20T14:34:15.669Z,28.50
2019-04-20T14:36:46.741Z,28.50
2019-04-20T14:39:16.562Z,28.50
2019-04-20T14:41:46.649Z,28.40
2019-04-20T14:44:16.404Z,28.30
2019-04-20T14:46:45.896Z,28.20
2019-04-20T14:49:16.554Z,28.00
2019-04-20T14:51:47.722Z,27.90
2019-04-20T14:54:17.245Z,27.80
2019-04-20T14:56:47.606Z,27.70
2019-04-20T14:59:51.740Z,27.70
2019-04-20T15:02:23.738Z,27.80
2019-04-20T15:04:54.825Z,27.80
2019-04-20T15:07:24.700Z,27.90
2019-04-20T15:09:55.057Z,27.90
2019-04-20T15:12:37.624Z,27.90
2019-04-20T15:14:56.580Z,28.00
2019-04-20T15:17:51.416Z,28.00
2019-04-20T15:20:39.634Z,28.00
2019-04-20T15:23:21.571Z,28.00
2019-04-20T15:25:52.713Z,28.00
2019-04-20T15:28:22.539Z,28.00
2019-04-20T15:30:52.179Z,28.00
2019-04-20T15:33:23.081Z,28.00
2019-04-20T15:35:52.940Z,28.00
2019-04-20T15:38:23.076Z,28.00
2019-04-20T15:40:53.771Z,28.00
2019-04-20T15:43:27.760Z,28.00
2019-04-20T15:45:57.342Z,28.00
2019-04-20T15:48:28.051Z,28.00
2019-04-20T15:50:58.211Z,28.00
2019-04-20T15:53:29.421Z,28.00
2019-04-20T15:56:01.445Z,28.00
2019-04-20T15:58:30.500Z,28.00
2019-04-20T16:01:02.862Z,28.10
2019-04-20T16:03:55.316Z,28.10
2019-04-20T16:06:25.302Z,28.10
2019-04-20T16:08:57.463Z,28.10
2019-04-20T16:11:26.934Z,28.10
2019-04-20T16:13:58.223Z,28.10
2019-04-20T16:16:27.940Z,28.10
2019-04-20T16:18:58.843Z,28.00
2019-04-20T16:21:32.010Z,28.00
2019-04-20T16:24:04.486Z,27.90
2019-04-20T16:26:47.719Z,27.90
2019-04-20T16:29:17.652Z,27.90
2019-04-20T16:31:49.057Z,27.70
2019-04-20T16:34:19.236Z,27.70
2019-04-20T16:36:51.797Z,27.60
2019-04-20T16:39:22.530Z,27.50
2019-04-20T16:41:52.182Z,27.40
2019-04-20T16:44:23.040Z,27.40
2019-04-20T16:46:54.198Z,27.30
2019-04-20T16:49:25.354Z,27.20
2019-04-20T16:51:56.820Z,27.20
2019-04-20T16:54:27.891Z,27.10
2019-04-20T16:56:57.630Z,27.10
2019-04-20T16:59:28.296Z,27.00
2019-04-20T17:01:58.279Z,27.00
2019-04-20T17:04:28.875Z,26.90
2019-04-20T17:07:31.146Z,26.90
2019-04-20T17:10:02.201Z,26.80
2019-04-20T17:12:33.508Z,26.70
2019-04-20T17:15:03.643Z,26.60
2019-04-20T17:17:33.663Z,26.60
2019-04-20T17:20:03.866Z,26.50
2019-04-20T17:22:33.674Z,26.50
2019-04-20T17:25:03.997Z,26.40
2019-04-20T17:27:52.994Z,26.30
2019-04-20T17:30:58.994Z,26.20
2019-04-20T17:33:46.532Z,26.10
2019-04-20T17:36:12.394Z,26.00
2019-04-20T17:38:43.380Z,25.90
2019-04-20T17:41:22.491Z,25.80
2019-04-20T17:44:04.217Z,25.80
2019-04-20T17:46:24.684Z,25.70
2019-04-20T17:48:59.511Z,25.60
2019-04-20T17:51:37.184Z,25.50
2019-04-20T17:53:58.548Z,25.50
2019-04-20T17:56:26.334Z,25.40
2019-04-20T17:58:56.453Z,25.30
2019-04-20T18:02:05.239Z,25.20
2019-04-20T18:04:59.102Z,25.10
2019-04-20T18:07:18.286Z,25.00
2019-04-20T18:09:54.756Z,24.90
2019-04-20T18:12:06.783Z,24.80
2019-04-20T18:14:48.945Z,24.70
2019-04-20T18:17:25.891Z,24.60
2019-04-20T18:19:49.181Z,24.50
2019-04-20T18:22:19.560Z,24.40
2019-04-20T18:25:16.445Z,24.30
2019-04-20T18:27:44.117Z,24.20
2019-04-20T18:30:10.686Z,24.10
2019-04-20T18:32:31.496Z,24.00
2019-04-20T18:35:08.227Z,23.90
2019-04-20T18:37:36.524Z,23.80
2019-04-20T18:40:11.124Z,23.80
2019-04-20T18:42:43.486Z,23.70
2019-04-20T18:45:28.451Z,23.60
2019-04-20T18:48:02.705Z,23.60
2019-04-20T18:50:22.400Z,23.50
2019-04-20T18:52:47.685Z,23.40
2019-04-20T18:55:22.365Z,23.40
2019-04-20T18:57:49.106Z,23.30
2019-04-20T19:00:27.037Z,23.30
2019-04-20T19:02:56.034Z,23.10
2019-04-20T19:05:24.479Z,23.10
2019-04-20T19:07:59.910Z,23.00
2019-04-20T19:10:31.610Z,23.00
2019-04-20T19:13:04.933Z,22.90
2019-04-20T19:15:56.060Z,22.80
2019-04-20T19:18:38.179Z,22.80
2019-04-20T19:21:01.398Z,22.70
2019-04-20T19:23:33.785Z,22.60
2019-04-20T19:26:09.610Z,22.60
2019-04-20T19:28:44.337Z,22.50
2019-04-20T19:31:19.394Z,22.40
2019-04-20T19:34:04.186Z,22.40
2019-04-20T19:36:20.027Z,22.40
2019-04-20T19:38:52.918Z,22.30
2019-04-20T19:41:27.852Z,22.20
2019-04-20T19:43:56.412Z,22.20
2019-04-20T19:48:56.587Z,22.10
2019-04-20T19:51:43.360Z,22.10
2019-04-20T19:54:15.313Z,22.00
2019-04-20T19:56:37.302Z,22.00
2019-04-20T19:59:07.149Z,21.90
2019-04-20T20:01:24.905Z,21.90
2019-04-20T20:03:58.838Z,21.80
2019-04-20T20:06:33.167Z,21.80
2019-04-20T20:09:04.200Z,21.80
2019-04-20T20:11:36.384Z,21.70
2019-04-20T20:14:05.885Z,21.70
2019-04-20T20:16:56.257Z,21.60
2019-04-20T20:19:16.607Z,21.60
2019-04-20T20:21:56.598Z,21.50
2019-04-20T20:24:12.484Z,21.40
2019-04-20T20:26:48.761Z,21.40
2019-04-20T20:29:23.130Z,21.40
2019-04-20T20:32:00.631Z,21.30
2019-04-20T20:34:24.431Z,21.30
2019-04-20T20:36:57.173Z,21.30
2019-04-20T20:39:24.258Z,21.20
2019-04-20T20:42:01.668Z,21.10
2019-04-20T20:44:31.848Z,21.10
2019-04-20T20:47:00.784Z,21.00
2019-04-20T20:49:48.543Z,21.00
2019-04-20T20:52:12.341Z,20.90
2019-04-20T20:54:41.374Z,20.90
2019-04-20T20:57:05.661Z,20.90
2019-04-20T20:59:46.772Z,20.80
2019-04-20T21:02:08.834Z,20.80
2019-04-20T21:04:35.338Z,20.80
2019-04-20T21:07:06.619Z,20.70
2019-04-20T21:09:37.496Z,20.70
2019-04-20T21:12:13.855Z,20.60
2019-04-20T21:14:40.531Z,20.60
2019-04-20T21:17:15.950Z,20.60
2019-04-20T21:19:59.345Z,20.50
2019-04-20T21:22:19.142Z,20.50
2019-04-20T21:24:49.753Z,20.40
2019-04-20T21:27:21.896Z,20.40
2019-04-20T21:29:54.284Z,20.30
2019-04-20T21:32:23.467Z,20.20
2019-04-20T21:35:00.312Z,20.20
2019-04-20T21:37:27.254Z,20.10
2019-04-20T21:40:02.346Z,20.00
2019-04-20T21:42:33.802Z,20.00
2019-04-20T21:45:06.977Z,19.90
2019-04-20T21:47:36.299Z,19.80
2019-04-20T21:50:20.589Z,19.80
2019-04-20T21:52:39.378Z,19.70
2019-04-20T21:55:06.071Z,19.60
2019-04-20T21:57:39.647Z,19.60
2019-04-20T22:00:23.784Z,19.60
2019-04-20T22:02:48.856Z,19.50
2019-04-20T22:05:13.583Z,19.50
2019-04-20T22:07:44.277Z,19.50
2019-04-20T22:10:20.146Z,19.40
2019-04-20T22:12:51.236Z,19.40
2019-04-20T22:15:22.471Z,19.40
2019-04-20T22:17:48.559Z,19.30
2019-04-20T22:20:28.803Z,19.30
2019-04-20T22:23:04.553Z,19.10
2019-04-20T22:25:39.149Z,19.10
2019-04-20T22:27:52.103Z,19.00
2019-04-20T22:30:22.085Z,18.90
2019-04-20T22:32:53.714Z,18.70
2019-04-20T22:35:26.060Z,18.60
2019-04-20T22:38:06.985Z,18.50
2019-04-20T22:40:36.399Z,18.40
2019-04-20T22:43:06.504Z,18.20
2019-04-20T22:45:39.739Z,18.20
2019-04-20T22:48:10.991Z,18.00
2019-04-20T22:51:01.633Z,17.90
2019-04-20T22:53:26.104Z,17.80
2019-04-20T22:56:04.593Z,17.70
2019-04-20T22:58:29.014Z,17.60
2019-04-20T23:00:53.662Z,17.60
2019-04-20T23:03:16.837Z,17.50
2019-04-20T23:05:47.029Z,17.50
2019-04-20T23:08:17.182Z,17.40
2019-04-20T23:10:48.131Z,17.40
2019-04-20T23:13:21.213Z,17.40
2019-04-20T23:15:55.138Z,17.30
2019-04-20T23:18:22.317Z,17.30
2019-04-20T23:21:08.084Z,17.20
2019-04-20T23:23:35.723Z,17.10
2019-04-20T23:26:05.346Z,17.00
2019-04-20T23:28:35.446Z,17.00
2019-04-20T23:31:11.470Z,16.90
2019-04-20T23:33:36.389Z,16.80
2019-04-20T23:36:06.760Z,16.70
2019-04-20T23:38:37.102Z,16.60
2019-04-20T23:41:08.033Z,16.50
2019-04-20T23:43:43.013Z,16.50
2019-04-20T23:46:31.534Z,16.40
2019-04-20T23:49:25.235Z,16.40
2019-04-20T23:52:09.519Z,16.40
2019-04-20T23:54:26.248Z,16.40
2019-04-20T23:56:53.644Z,16.40
2019-04-20T23:59:30.723Z,16.40
